sensor_id;sensor_type;location;lat;lon;timestamp;temperature;humidity
26595;DHT22;14238;49.496;8.154;2023-03-20T00:01:44;9.70;99.90
26595;DHT22;14238;49.496;8.154;2023-03-20T00:04:10;9.70;99.90
26595;DHT22;14238;49.496;8.154;2023-03-20T00:06:36;9.70;99.90
26595;DHT22;14238;49.496;8.154;2023-03-20T00:09:02;9.70;99.90
26595;DHT22;14238;49.496;8.154;2023-03-20T00:11:33;9.70;99.90
26595;DHT22;14238;49.496;8.154;2023-03-20T00:14:07;9.60;99.90
26595;DHT22;14238;49.496;8.154;2023-03-20T00:16:36;9.50;99.90
26595;DHT22;14238;49.496;8.154;2023-03-20T00:19:02;9.60;99.90
26595;DHT22;14238;49.496;8.154;2023-03-20T00:21:29;9.60;99.90
26595;DHT22;14238;49.496;8.154;2023-03-20T00:23:55;9.60;99.90
26595;DHT22;14238;49.496;8.154;2023-03-20T00:26:25;9.60;99.90
26595;DHT22;14238;49.496;8.154;2023-03-20T00:28:51;9.60;99.90
26595;DHT22;14238;49.496;8.154;2023-03-20T00:33:45;9.60;99.90
26595;DHT22;14238;49.496;8.154;2023-03-20T00:36:12;9.60;99.90
26595;DHT22;14238;49.496;8.154;2023-03-20T00:38:38;9.60;99.90
26595;DHT22;14238;49.496;8.154;2023-03-20T00:41:20;9.60;99.90
26595;DHT22;14238;49.496;8.154;2023-03-20T00:43:48;9.60;99.90
26595;DHT22;14238;49.496;8.154;2023-03-20T00:46:15;9.60;99.90
26595;DHT22;14238;49.496;8.154;2023-03-20T00:48:41;9.60;99.90
26595;DHT22;14238;49.496;8.154;2023-03-20T00:51:08;9.60;99.90
26595;DHT22;14238;49.496;8.154;2023-03-20T00:53:34;9.60;99.90
26595;DHT22;14238;49.496;8.154;2023-03-20T00:56:00;9.60;99.90
26595;DHT22;14238;49.496;8.154;2023-03-20T00:58:26;9.60;99.90
26595;DHT22;14238;49.496;8.154;2023-03-20T01:00:51;9.40;99.90
26595;DHT22;14238;49.496;8.154;2023-03-20T01:03:22;9.40;99.90
26595;DHT22;14238;49.496;8.154;2023-03-20T01:05:49;9.40;99.90
26595;DHT22;14238;49.496;8.154;2023-03-20T01:08:23;9.40;99.90
26595;DHT22;14238;49.496;8.154;2023-03-20T01:10:52;9.40;99.90
26595;DHT22;14238;49.496;8.154;2023-03-20T01:13:24;9.40;99.90
26595;DHT22;14238;49.496;8.154;2023-03-20T01:15:51;9.40;99.90
26595;DHT22;14238;49.496;8.154;2023-03-20T01:18:19;9.20;99.90
26595;DHT22;14238;49.496;8.154;2023-03-20T01:20:45;9.30;99.90
26595;DHT22;14238;49.496;8.154;2023-03-20T01:23:12;9.40;99.90
26595;DHT22;14238;49.496;8.154;2023-03-20T01:25:38;9.40;99.90
26595;DHT22;14238;49.496;8.154;2023-03-20T01:28:15;9.40;99.90
26595;DHT22;14238;49.496;8.154;2023-03-20T01:30:41;9.40;99.90
26595;DHT22;14238;49.496;8.154;2023-03-20T01:33:18;9.40;99.90
26595;DHT22;14238;49.496;8.154;2023-03-20T01:35:46;9.50;99.90
26595;DHT22;14238;49.496;8.154;2023-03-20T01:38:17;9.50;99.90
26595;DHT22;14238;49.496;8.154;2023-03-20T01:40:54;9.50;99.90
26595;DHT22;14238;49.496;8.154;2023-03-20T01:43:22;9.50;99.90
26595;DHT22;14238;49.496;8.154;2023-03-20T01:45:59;9.50;99.90
26595;DHT22;14238;49.496;8.154;2023-03-20T01:51:25;9.50;99.90
26595;DHT22;14238;49.496;8.154;2023-03-20T01:54:06;9.50;99.90
26595;DHT22;14238;49.496;8.154;2023-03-20T01:56:37;9.50;99.90
26595;DHT22;14238;49.496;8.154;2023-03-20T01:59:21;9.50;99.90
26595;DHT22;14238;49.496;8.154;2023-03-20T02:01:48;9.50;99.90
26595;DHT22;14238;49.496;8.154;2023-03-20T02:04:14;9.50;99.90
26595;DHT22;14238;49.496;8.154;2023-03-20T02:06:41;9.50;99.90
26595;DHT22;14238;49.496;8.154;2023-03-20T02:09:09;9.50;99.90
26595;DHT22;14238;49.496;8.154;2023-03-20T02:11:37;9.50;99.90
26595;DHT22;14238;49.496;8.154;2023-03-20T02:14:03;9.40;99.90
26595;DHT22;14238;49.496;8.154;2023-03-20T02:16:29;9.40;99.90
26595;DHT22;14238;49.496;8.154;2023-03-20T02:18:56;9.40;99.90
26595;DHT22;14238;49.496;8.154;2023-03-20T02:21:43;9.40;99.90
26595;DHT22;14238;49.496;8.154;2023-03-20T02:25:33;9.40;99.90
26595;DHT22;14238;49.496;8.154;2023-03-20T02:27:44;9.40;99.90
26595;DHT22;14238;49.496;8.154;2023-03-20T02:30:38;9.40;99.90
26595;DHT22;14238;49.496;8.154;2023-03-20T02:36:14;9.40;99.90
26595;DHT22;14238;49.496;8.154;2023-03-20T02:44:25;9.40;99.90
26595;DHT22;14238;49.496;8.154;2023-03-20T02:47:06;9.40;99.90
26595;DHT22;14238;49.496;8.154;2023-03-20T02:52:25;9.40;99.90
26595;DHT22;14238;49.496;8.154;2023-03-20T02:57:49;9.40;99.90
26595;DHT22;14238;49.496;8.154;2023-03-20T03:00:35;9.40;99.90
26595;DHT22;14238;49.496;8.154;2023-03-20T03:03:23;9.40;99.90
26595;DHT22;14238;49.496;8.154;2023-03-20T03:05:58;9.50;99.90
26595;DHT22;14238;49.496;8.154;2023-03-20T03:08:30;9.50;99.90
26595;DHT22;14238;49.496;8.154;2023-03-20T03:11:02;9.40;99.90
26595;DHT22;14238;49.496;8.154;2023-03-20T03:13:31;9.40;99.90
26595;DHT22;14238;49.496;8.154;2023-03-20T03:16:06;9.40;99.90
26595;DHT22;14238;49.496;8.154;2023-03-20T03:18:34;9.40;99.90
26595;DHT22;14238;49.496;8.154;2023-03-20T03:21:03;9.40;99.90
26595;DHT22;14238;49.496;8.154;2023-03-20T03:23:34;9.40;99.90
26595;DHT22;14238;49.496;8.154;2023-03-20T03:26:03;9.40;99.90
26595;DHT22;14238;49.496;8.154;2023-03-20T03:28:48;9.40;99.90
26595;DHT22;14238;49.496;8.154;2023-03-20T03:31:16;9.40;99.90
26595;DHT22;14238;49.496;8.154;2023-03-20T03:33:49;9.40;99.90
26595;DHT22;14238;49.496;8.154;2023-03-20T03:36:25;9.50;99.90
26595;DHT22;14238;49.496;8.154;2023-03-20T03:38:58;9.50;99.90
26595;DHT22;14238;49.496;8.154;2023-03-20T03:41:37;9.50;99.90
26595;DHT22;14238;49.496;8.154;2023-03-20T03:46:56;9.50;99.90
26595;DHT22;14238;49.496;8.154;2023-03-20T03:49:26;9.40;99.90
26595;DHT22;14238;49.496;8.154;2023-03-20T03:52:04;9.50;99.90
26595;DHT22;14238;49.496;8.154;2023-03-20T03:54:39;9.40;99.90
26595;DHT22;14238;49.496;8.154;2023-03-20T03:57:07;9.40;99.90
26595;DHT22;14238;49.496;8.154;2023-03-20T03:59:40;9.40;99.90
26595;DHT22;14238;49.496;8.154;2023-03-20T04:02:07;9.40;99.90
26595;DHT22;14238;49.496;8.154;2023-03-20T04:04:35;9.40;99.90
26595;DHT22;14238;49.496;8.154;2023-03-20T04:07:02;9.40;99.90
26595;DHT22;14238;49.496;8.154;2023-03-20T04:09:28;9.40;99.90
26595;DHT22;14238;49.496;8.154;2023-03-20T04:11:54;9.40;99.90
26595;DHT22;14238;49.496;8.154;2023-03-20T04:14:20;9.40;99.90
26595;DHT22;14238;49.496;8.154;2023-03-20T04:16:47;9.40;99.90
26595;DHT22;14238;49.496;8.154;2023-03-20T04:19:12;9.40;99.90
26595;DHT22;14238;49.496;8.154;2023-03-20T04:21:38;9.40;99.90
26595;DHT22;14238;49.496;8.154;2023-03-20T04:24:03;9.30;99.90
26595;DHT22;14238;49.496;8.154;2023-03-20T04:26:29;9.30;99.90
26595;DHT22;14238;49.496;8.154;2023-03-20T04:28:55;9.40;99.90
26595;DHT22;14238;49.496;8.154;2023-03-20T04:31:20;9.40;99.90
26595;DHT22;14238;49.496;8.154;2023-03-20T04:33:46;9.30;99.90
26595;DHT22;14238;49.496;8.154;2023-03-20T04:36:12;9.30;99.90
26595;DHT22;14238;49.496;8.154;2023-03-20T04:38:38;9.30;99.90
26595;DHT22;14238;49.496;8.154;2023-03-20T04:41:04;9.30;99.90
26595;DHT22;14238;49.496;8.154;2023-03-20T04:43:29;9.30;99.90
26595;DHT22;14238;49.496;8.154;2023-03-20T04:45:55;9.30;99.90
26595;DHT22;14238;49.496;8.154;2023-03-20T04:48:21;9.40;99.90
26595;DHT22;14238;49.496;8.154;2023-03-20T04:50:47;9.40;99.90
26595;DHT22;14238;49.496;8.154;2023-03-20T04:53:14;9.40;99.90
26595;DHT22;14238;49.496;8.154;2023-03-20T04:55:40;9.40;99.90
26595;DHT22;14238;49.496;8.154;2023-03-20T04:58:05;9.40;99.90
26595;DHT22;14238;49.496;8.154;2023-03-20T05:00:31;9.40;99.90
26595;DHT22;14238;49.496;8.154;2023-03-20T05:02:57;9.40;99.90
26595;DHT22;14238;49.496;8.154;2023-03-20T05:05:24;9.40;99.90
26595;DHT22;14238;49.496;8.154;2023-03-20T05:07:50;9.40;99.90
26595;DHT22;14238;49.496;8.154;2023-03-20T05:10:16;9.40;99.90
26595;DHT22;14238;49.496;8.154;2023-03-20T05:12:42;9.40;99.90
26595;DHT22;14238;49.496;8.154;2023-03-20T05:15:08;9.40;99.90
26595;DHT22;14238;49.496;8.154;2023-03-20T05:17:33;9.40;99.90
26595;DHT22;14238;49.496;8.154;2023-03-20T05:19:59;9.40;99.90
26595;DHT22;14238;49.496;8.154;2023-03-20T05:22:24;9.40;99.90
26595;DHT22;14238;49.496;8.154;2023-03-20T05:24:50;9.40;99.90
26595;DHT22;14238;49.496;8.154;2023-03-20T05:27:16;9.30;99.90
26595;DHT22;14238;49.496;8.154;2023-03-20T05:29:42;9.40;99.90
26595;DHT22;14238;49.496;8.154;2023-03-20T05:32:07;9.40;99.90
26595;DHT22;14238;49.496;8.154;2023-03-20T05:34:33;9.50;99.90
26595;DHT22;14238;49.496;8.154;2023-03-20T05:36:58;9.50;99.90
26595;DHT22;14238;49.496;8.154;2023-03-20T05:39:24;9.50;99.90
26595;DHT22;14238;49.496;8.154;2023-03-20T05:41:50;9.50;99.90
26595;DHT22;14238;49.496;8.154;2023-03-20T05:44:16;9.50;99.90
26595;DHT22;14238;49.496;8.154;2023-03-20T05:46:41;9.50;99.90
26595;DHT22;14238;49.496;8.154;2023-03-20T05:49:07;9.50;99.90
26595;DHT22;14238;49.496;8.154;2023-03-20T05:51:32;9.50;99.90
26595;DHT22;14238;49.496;8.154;2023-03-20T05:53:58;9.50;99.90
26595;DHT22;14238;49.496;8.154;2023-03-20T05:56:24;9.60;99.90
26595;DHT22;14238;49.496;8.154;2023-03-20T05:58:50;9.60;99.90
26595;DHT22;14238;49.496;8.154;2023-03-20T06:01:16;9.60;99.90
26595;DHT22;14238;49.496;8.154;2023-03-20T06:03:46;9.60;99.90
26595;DHT22;14238;49.496;8.154;2023-03-20T06:06:13;9.60;99.90
26595;DHT22;14238;49.496;8.154;2023-03-20T06:08:38;9.60;99.90
26595;DHT22;14238;49.496;8.154;2023-03-20T06:11:05;9.60;99.90
26595;DHT22;14238;49.496;8.154;2023-03-20T06:13:30;9.60;99.90
26595;DHT22;14238;49.496;8.154;2023-03-20T06:15:56;9.70;99.90
26595;DHT22;14238;49.496;8.154;2023-03-20T06:18:21;9.60;99.90
26595;DHT22;14238;49.496;8.154;2023-03-20T06:20:52;9.60;99.90
26595;DHT22;14238;49.496;8.154;2023-03-20T06:23:18;9.70;99.90
26595;DHT22;14238;49.496;8.154;2023-03-20T06:25:43;9.80;99.90
26595;DHT22;14238;49.496;8.154;2023-03-20T06:28:09;9.80;99.90
26595;DHT22;14238;49.496;8.154;2023-03-20T06:30:34;9.80;99.90
26595;DHT22;14238;49.496;8.154;2023-03-20T06:33:00;9.90;99.90
26595;DHT22;14238;49.496;8.154;2023-03-20T06:35:25;9.80;99.90
26595;DHT22;14238;49.496;8.154;2023-03-20T06:37:55;9.80;99.90
26595;DHT22;14238;49.496;8.154;2023-03-20T06:40:21;9.90;99.90
26595;DHT22;14238;49.496;8.154;2023-03-20T06:42:47;9.80;99.90
26595;DHT22;14238;49.496;8.154;2023-03-20T06:45:12;9.70;99.90
26595;DHT22;14238;49.496;8.154;2023-03-20T06:47:38;9.60;99.90
26595;DHT22;14238;49.496;8.154;2023-03-20T06:50:04;9.60;99.90
26595;DHT22;14238;49.496;8.154;2023-03-20T06:52:29;9.60;99.90
26595;DHT22;14238;49.496;8.154;2023-03-20T06:54:55;9.60;99.90
26595;DHT22;14238;49.496;8.154;2023-03-20T06:57:21;9.50;99.90
26595;DHT22;14238;49.496;8.154;2023-03-20T06:59:47;9.60;99.90
26595;DHT22;14238;49.496;8.154;2023-03-20T07:02:12;9.60;99.90
26595;DHT22;14238;49.496;8.154;2023-03-20T07:04:38;9.60;99.90
26595;DHT22;14238;49.496;8.154;2023-03-20T07:07:04;9.60;99.90
26595;DHT22;14238;49.496;8.154;2023-03-20T07:09:29;9.70;99.90
26595;DHT22;14238;49.496;8.154;2023-03-20T07:11:55;9.80;99.90
26595;DHT22;14238;49.496;8.154;2023-03-20T07:14:21;10.00;99.90
26595;DHT22;14238;49.496;8.154;2023-03-20T07:16:47;10.00;99.90
26595;DHT22;14238;49.496;8.154;2023-03-20T07:19:12;10.10;99.90
26595;DHT22;14238;49.496;8.154;2023-03-20T07:21:38;10.10;99.90
26595;DHT22;14238;49.496;8.154;2023-03-20T07:24:04;10.10;99.90
26595;DHT22;14238;49.496;8.154;2023-03-20T07:26:31;10.00;99.90
26595;DHT22;14238;49.496;8.154;2023-03-20T07:28:57;10.00;99.90
26595;DHT22;14238;49.496;8.154;2023-03-20T07:31:25;10.00;99.90
26595;DHT22;14238;49.496;8.154;2023-03-20T07:33:51;10.00;99.90
26595;DHT22;14238;49.496;8.154;2023-03-20T07:36:17;9.90;99.90
26595;DHT22;14238;49.496;8.154;2023-03-20T07:38:42;9.80;99.90
26595;DHT22;14238;49.496;8.154;2023-03-20T07:41:08;9.80;99.90
26595;DHT22;14238;49.496;8.154;2023-03-20T07:43:33;9.80;99.90
26595;DHT22;14238;49.496;8.154;2023-03-20T07:46:04;9.80;99.90
26595;DHT22;14238;49.496;8.154;2023-03-20T07:48:30;9.80;99.90
26595;DHT22;14238;49.496;8.154;2023-03-20T07:50:56;9.80;99.90
26595;DHT22;14238;49.496;8.154;2023-03-20T07:53:21;9.80;99.90
26595;DHT22;14238;49.496;8.154;2023-03-20T07:55:47;9.70;99.90
26595;DHT22;14238;49.496;8.154;2023-03-20T07:58:13;9.70;99.90
26595;DHT22;14238;49.496;8.154;2023-03-20T08:00:38;9.80;99.90
26595;DHT22;14238;49.496;8.154;2023-03-20T08:03:04;9.90;99.90
26595;DHT22;14238;49.496;8.154;2023-03-20T08:05:29;9.90;99.90
26595;DHT22;14238;49.496;8.154;2023-03-20T08:07:55;10.10;99.90
26595;DHT22;14238;49.496;8.154;2023-03-20T08:10:21;10.10;99.90
26595;DHT22;14238;49.496;8.154;2023-03-20T08:12:46;10.20;99.90
26595;DHT22;14238;49.496;8.154;2023-03-20T08:15:12;10.30;99.90
26595;DHT22;14238;49.496;8.154;2023-03-20T08:17:41;10.30;99.90
26595;DHT22;14238;49.496;8.154;2023-03-20T08:20:08;10.30;99.90
26595;DHT22;14238;49.496;8.154;2023-03-20T08:22:35;10.10;99.90
26595;DHT22;14238;49.496;8.154;2023-03-20T08:25:00;10.20;99.90
26595;DHT22;14238;49.496;8.154;2023-03-20T08:27:26;10.30;99.90
26595;DHT22;14238;49.496;8.154;2023-03-20T08:29:51;10.30;99.90
26595;DHT22;14238;49.496;8.154;2023-03-20T08:32:17;10.40;99.90
26595;DHT22;14238;49.496;8.154;2023-03-20T08:34:43;10.50;99.90
26595;DHT22;14238;49.496;8.154;2023-03-20T08:37:08;10.40;99.90
26595;DHT22;14238;49.496;8.154;2023-03-20T08:39:36;10.50;99.90
26595;DHT22;14238;49.496;8.154;2023-03-20T08:42:04;10.50;99.90
26595;DHT22;14238;49.496;8.154;2023-03-20T08:44:30;10.30;99.90
26595;DHT22;14238;49.496;8.154;2023-03-20T08:46:55;10.40;99.90
26595;DHT22;14238;49.496;8.154;2023-03-20T08:49:21;10.30;99.90
26595;DHT22;14238;49.496;8.154;2023-03-20T08:51:46;10.40;99.90
26595;DHT22;14238;49.496;8.154;2023-03-20T08:54:12;10.40;99.90
26595;DHT22;14238;49.496;8.154;2023-03-20T08:56:39;10.40;99.90
26595;DHT22;14238;49.496;8.154;2023-03-20T08:59:04;10.50;99.90
26595;DHT22;14238;49.496;8.154;2023-03-20T09:01:30;10.70;99.90
26595;DHT22;14238;49.496;8.154;2023-03-20T09:03:56;10.70;99.90
26595;DHT22;14238;49.496;8.154;2023-03-20T09:06:21;10.60;99.90
26595;DHT22;14238;49.496;8.154;2023-03-20T09:08:47;10.60;99.90
26595;DHT22;14238;49.496;8.154;2023-03-20T09:11:12;10.60;99.90
26595;DHT22;14238;49.496;8.154;2023-03-20T09:13:38;10.70;99.90
26595;DHT22;14238;49.496;8.154;2023-03-20T09:16:03;10.80;99.90
26595;DHT22;14238;49.496;8.154;2023-03-20T09:18:29;10.80;99.90
26595;DHT22;14238;49.496;8.154;2023-03-20T09:20:55;10.90;99.90
26595;DHT22;14238;49.496;8.154;2023-03-20T09:23:21;11.00;99.90
26595;DHT22;14238;49.496;8.154;2023-03-20T09:25:47;10.90;99.90
26595;DHT22;14238;49.496;8.154;2023-03-20T09:28:13;10.80;99.90
26595;DHT22;14238;49.496;8.154;2023-03-20T09:30:38;10.80;99.90
26595;DHT22;14238;49.496;8.154;2023-03-20T09:33:05;10.80;99.90
26595;DHT22;14238;49.496;8.154;2023-03-20T09:35:30;10.60;99.90
26595;DHT22;14238;49.496;8.154;2023-03-20T09:37:56;10.60;99.90
26595;DHT22;14238;49.496;8.154;2023-03-20T09:40:29;10.60;99.90
26595;DHT22;14238;49.496;8.154;2023-03-20T09:45:52;10.80;99.90
26595;DHT22;14238;49.496;8.154;2023-03-20T09:51:35;11.60;99.90
26595;DHT22;14238;49.496;8.154;2023-03-20T09:54:32;11.90;99.90
26595;DHT22;14238;49.496;8.154;2023-03-20T09:57:02;12.50;99.90
26595;DHT22;14238;49.496;8.154;2023-03-20T09:59:31;13.40;99.90
26595;DHT22;14238;49.496;8.154;2023-03-20T10:02:05;13.80;99.90
26595;DHT22;14238;49.496;8.154;2023-03-20T10:04:32;14.10;99.90
26595;DHT22;14238;49.496;8.154;2023-03-20T10:07:02;14.60;99.90
26595;DHT22;14238;49.496;8.154;2023-03-20T10:09:28;14.90;99.90
26595;DHT22;14238;49.496;8.154;2023-03-20T10:12:40;14.20;99.90
26595;DHT22;14238;49.496;8.154;2023-03-20T10:18:17;16.20;99.90
26595;DHT22;14238;49.496;8.154;2023-03-20T10:20:59;15.50;99.90
26595;DHT22;14238;49.496;8.154;2023-03-20T10:26:21;15.30;99.90
26595;DHT22;14238;49.496;8.154;2023-03-20T10:28:51;15.60;99.90
26595;DHT22;14238;49.496;8.154;2023-03-20T10:31:32;15.10;99.90
26595;DHT22;14238;49.496;8.154;2023-03-20T10:34:33;15.30;99.90
26595;DHT22;14238;49.496;8.154;2023-03-20T10:37:13;15.10;99.90
26595;DHT22;14238;49.496;8.154;2023-03-20T10:42:24;15.50;99.90
26595;DHT22;14238;49.496;8.154;2023-03-20T10:45:03;15.70;99.90
26595;DHT22;14238;49.496;8.154;2023-03-20T10:47:35;15.70;99.90
26595;DHT22;14238;49.496;8.154;2023-03-20T10:50:10;15.20;99.90
26595;DHT22;14238;49.496;8.154;2023-03-20T10:52:40;15.50;99.90
26595;DHT22;14238;49.496;8.154;2023-03-20T10:55:17;16.40;99.90
26595;DHT22;14238;49.496;8.154;2023-03-20T10:57:49;17.00;99.90
26595;DHT22;14238;49.496;8.154;2023-03-20T11:00:21;17.30;99.90
26595;DHT22;14238;49.496;8.154;2023-03-20T11:02:47;16.60;99.90
26595;DHT22;14238;49.496;8.154;2023-03-20T11:05:28;15.60;99.90
26595;DHT22;14238;49.496;8.154;2023-03-20T11:08:04;16.00;99.90
26595;DHT22;14238;49.496;8.154;2023-03-20T11:10:33;15.50;99.90
26595;DHT22;14238;49.496;8.154;2023-03-20T11:18:33;16.10;99.90
26595;DHT22;14238;49.496;8.154;2023-03-20T11:21:00;15.70;99.90
26595;DHT22;14238;49.496;8.154;2023-03-20T11:23:28;16.10;99.90
26595;DHT22;14238;49.496;8.154;2023-03-20T11:26:04;16.00;99.90
26595;DHT22;14238;49.496;8.154;2023-03-20T11:28:46;15.50;99.90
26595;DHT22;14238;49.496;8.154;2023-03-20T11:33:44;15.00;99.90
26595;DHT22;14238;49.496;8.154;2023-03-20T11:36:24;14.90;99.90
26595;DHT22;14238;49.496;8.154;2023-03-20T11:38:52;15.10;99.90
26595;DHT22;14238;49.496;8.154;2023-03-20T11:41:28;15.00;99.90
26595;DHT22;14238;49.496;8.154;2023-03-20T11:43:54;14.90;99.90
26595;DHT22;14238;49.496;8.154;2023-03-20T11:46:21;14.80;99.90
26595;DHT22;14238;49.496;8.154;2023-03-20T11:49:16;14.40;99.90
26595;DHT22;14238;49.496;8.154;2023-03-20T11:51:44;14.80;99.90
26595;DHT22;14238;49.496;8.154;2023-03-20T11:54:16;14.60;99.90
26595;DHT22;14238;49.496;8.154;2023-03-20T11:56:59;14.70;99.90
26595;DHT22;14238;49.496;8.154;2023-03-20T11:59:32;14.70;99.90
26595;DHT22;14238;49.496;8.154;2023-03-20T12:02:01;14.60;99.90
26595;DHT22;14238;49.496;8.154;2023-03-20T12:04:29;14.50;99.90
26595;DHT22;14238;49.496;8.154;2023-03-20T12:09:34;15.10;99.90
26595;DHT22;14238;49.496;8.154;2023-03-20T12:12:17;15.30;99.90
26595;DHT22;14238;49.496;8.154;2023-03-20T12:20:30;16.10;99.90
26595;DHT22;14238;49.496;8.154;2023-03-20T12:25:48;17.20;99.90
26595;DHT22;14238;49.496;8.154;2023-03-20T12:31:32;16.90;99.90
26595;DHT22;14238;49.496;8.154;2023-03-20T12:34:05;17.80;99.90
26595;DHT22;14238;49.496;8.154;2023-03-20T12:36:41;17.40;99.40
26595;DHT22;14238;49.496;8.154;2023-03-20T12:39:34;17.20;99.60
26595;DHT22;14238;49.496;8.154;2023-03-20T12:45:08;17.20;99.00
26595;DHT22;14238;49.496;8.154;2023-03-20T12:48:04;16.60;99.50
26595;DHT22;14238;49.496;8.154;2023-03-20T12:50:43;17.30;99.60
26595;DHT22;14238;49.496;8.154;2023-03-20T12:58:58;17.00;97.90
26595;DHT22;14238;49.496;8.154;2023-03-20T13:01:38;16.70;98.80
26595;DHT22;14238;49.496;8.154;2023-03-20T13:06:52;16.80;98.90
26595;DHT22;14238;49.496;8.154;2023-03-20T13:09:43;16.50;97.60
26595;DHT22;14238;49.496;8.154;2023-03-20T13:17:29;15.90;97.70
26595;DHT22;14238;49.496;8.154;2023-03-20T13:26:07;15.30;98.90
26595;DHT22;14238;49.496;8.154;2023-03-20T13:29:00;15.00;97.90
26595;DHT22;14238;49.496;8.154;2023-03-20T13:35:18;15.00;98.90
26595;DHT22;14238;49.496;8.154;2023-03-20T13:40:03;14.80;99.40
26595;DHT22;14238;49.496;8.154;2023-03-20T13:42:36;15.00;97.50
26595;DHT22;14238;49.496;8.154;2023-03-20T13:45:18;15.10;98.40
26595;DHT22;14238;49.496;8.154;2023-03-20T13:47:44;15.20;98.70
26595;DHT22;14238;49.496;8.154;2023-03-20T13:52:55;15.60;98.40
26595;DHT22;14238;49.496;8.154;2023-03-20T13:55:31;15.80;97.50
26595;DHT22;14238;49.496;8.154;2023-03-20T14:05:53;15.40;98.10
26595;DHT22;14238;49.496;8.154;2023-03-20T14:08:39;15.60;98.20
26595;DHT22;14238;49.496;8.154;2023-03-20T14:11:14;15.30;98.30
26595;DHT22;14238;49.496;8.154;2023-03-20T14:16:29;15.40;97.10
26595;DHT22;14238;49.496;8.154;2023-03-20T14:19:20;15.00;97.20
26595;DHT22;14238;49.496;8.154;2023-03-20T14:21:53;14.90;97.80
26595;DHT22;14238;49.496;8.154;2023-03-20T14:24:22;14.70;98.30
26595;DHT22;14238;49.496;8.154;2023-03-20T14:26:59;14.80;98.10
26595;DHT22;14238;49.496;8.154;2023-03-20T14:29:36;14.50;97.80
26595;DHT22;14238;49.496;8.154;2023-03-20T14:34:58;14.30;97.10
26595;DHT22;14238;49.496;8.154;2023-03-20T14:40:05;13.60;98.20
26595;DHT22;14238;49.496;8.154;2023-03-20T14:42:54;13.80;98.60
26595;DHT22;14238;49.496;8.154;2023-03-20T14:45:40;14.00;97.60
26595;DHT22;14238;49.496;8.154;2023-03-20T14:53:19;13.80;97.60
26595;DHT22;14238;49.496;8.154;2023-03-20T14:55:52;13.70;98.00
26595;DHT22;14238;49.496;8.154;2023-03-20T14:58:46;13.60;97.50
26595;DHT22;14238;49.496;8.154;2023-03-20T15:06:55;13.10;97.80
26595;DHT22;14238;49.496;8.154;2023-03-20T15:09:23;13.00;98.10
26595;DHT22;14238;49.496;8.154;2023-03-20T15:11:50;12.80;98.50
26595;DHT22;14238;49.496;8.154;2023-03-20T15:14:25;12.70;98.00
26595;DHT22;14238;49.496;8.154;2023-03-20T15:16:58;12.70;98.60
26595;DHT22;14238;49.496;8.154;2023-03-20T15:19:24;12.70;98.80
26595;DHT22;14238;49.496;8.154;2023-03-20T15:21:50;12.70;98.70
26595;DHT22;14238;49.496;8.154;2023-03-20T15:24:22;12.60;98.80
26595;DHT22;14238;49.496;8.154;2023-03-20T15:26:59;12.70;99.10
26595;DHT22;14238;49.496;8.154;2023-03-20T15:29:26;12.60;97.80
26595;DHT22;14238;49.496;8.154;2023-03-20T15:31:55;12.50;98.60
26595;DHT22;14238;49.496;8.154;2023-03-20T15:34:27;12.50;98.40
26595;DHT22;14238;49.496;8.154;2023-03-20T15:36:56;12.70;98.90
26595;DHT22;14238;49.496;8.154;2023-03-20T15:39:24;12.50;98.30
26595;DHT22;14238;49.496;8.154;2023-03-20T15:42:11;12.40;98.20
26595;DHT22;14238;49.496;8.154;2023-03-20T15:44:39;12.30;98.60
26595;DHT22;14238;49.496;8.154;2023-03-20T15:47:18;12.30;98.90
26595;DHT22;14238;49.496;8.154;2023-03-20T15:49:57;12.30;98.70
26595;DHT22;14238;49.496;8.154;2023-03-20T15:52:37;12.20;99.30
26595;DHT22;14238;49.496;8.154;2023-03-20T15:55:10;12.20;99.20
26595;DHT22;14238;49.496;8.154;2023-03-20T15:57:38;12.20;99.60
26595;DHT22;14238;49.496;8.154;2023-03-20T16:00:08;12.20;99.90
26595;DHT22;14238;49.496;8.154;2023-03-20T16:02:37;12.20;99.60
26595;DHT22;14238;49.496;8.154;2023-03-20T16:05:04;12.20;99.60
26595;DHT22;14238;49.496;8.154;2023-03-20T16:07:33;12.10;98.60
26595;DHT22;14238;49.496;8.154;2023-03-20T16:09:59;12.10;99.00
26595;DHT22;14238;49.496;8.154;2023-03-20T16:12:25;12.10;99.00
26595;DHT22;14238;49.496;8.154;2023-03-20T16:14:52;12.00;99.00
26595;DHT22;14238;49.496;8.154;2023-03-20T16:17:19;12.00;98.80
26595;DHT22;14238;49.496;8.154;2023-03-20T16:19:45;11.90;99.40
26595;DHT22;14238;49.496;8.154;2023-03-20T16:24:46;11.90;99.50
26595;DHT22;14238;49.496;8.154;2023-03-20T16:27:17;11.80;99.10
26595;DHT22;14238;49.496;8.154;2023-03-20T16:29:45;11.80;99.00
26595;DHT22;14238;49.496;8.154;2023-03-20T16:34:58;11.60;99.70
26595;DHT22;14238;49.496;8.154;2023-03-20T16:37:28;11.60;99.80
26595;DHT22;14238;49.496;8.154;2023-03-20T16:43:09;11.60;99.90
26595;DHT22;14238;49.496;8.154;2023-03-20T16:45:36;11.50;99.90
26595;DHT22;14238;49.496;8.154;2023-03-20T16:48:26;11.60;99.90
26595;DHT22;14238;49.496;8.154;2023-03-20T16:50:57;11.60;99.90
26595;DHT22;14238;49.496;8.154;2023-03-20T16:53:27;11.50;99.90
26595;DHT22;14238;49.496;8.154;2023-03-20T16:55:55;11.50;99.60
26595;DHT22;14238;49.496;8.154;2023-03-20T16:58:23;11.30;99.00
26595;DHT22;14238;49.496;8.154;2023-03-20T17:01:07;11.40;99.90
26595;DHT22;14238;49.496;8.154;2023-03-20T17:03:35;11.40;99.90
26595;DHT22;14238;49.496;8.154;2023-03-20T17:08:49;11.30;99.80
26595;DHT22;14238;49.496;8.154;2023-03-20T17:11:22;11.30;99.90
26595;DHT22;14238;49.496;8.154;2023-03-20T17:13:50;11.20;99.90
26595;DHT22;14238;49.496;8.154;2023-03-20T17:16:20;11.20;99.80
26595;DHT22;14238;49.496;8.154;2023-03-20T17:18:47;11.20;99.90
26595;DHT22;14238;49.496;8.154;2023-03-20T17:21:22;11.10;99.80
26595;DHT22;14238;49.496;8.154;2023-03-20T17:23:47;11.10;99.90
26595;DHT22;14238;49.496;8.154;2023-03-20T17:26:13;11.00;99.70
26595;DHT22;14238;49.496;8.154;2023-03-20T17:28:38;11.00;99.90
26595;DHT22;14238;49.496;8.154;2023-03-20T17:31:04;10.90;99.90
26595;DHT22;14238;49.496;8.154;2023-03-20T17:33:31;11.00;99.90
26595;DHT22;14238;49.496;8.154;2023-03-20T17:35:58;10.90;99.90
26595;DHT22;14238;49.496;8.154;2023-03-20T17:38:24;10.90;99.90
26595;DHT22;14238;49.496;8.154;2023-03-20T17:40:51;10.80;99.90
26595;DHT22;14238;49.496;8.154;2023-03-20T17:43:17;10.90;99.90
26595;DHT22;14238;49.496;8.154;2023-03-20T17:45:43;10.80;99.90
26595;DHT22;14238;49.496;8.154;2023-03-20T17:48:16;10.80;99.90
26595;DHT22;14238;49.496;8.154;2023-03-20T17:50:44;10.70;99.90
26595;DHT22;14238;49.496;8.154;2023-03-20T17:53:32;10.80;99.90
26595;DHT22;14238;49.496;8.154;2023-03-20T17:55:57;10.80;99.90
26595;DHT22;14238;49.496;8.154;2023-03-20T17:58:23;10.70;99.90
26595;DHT22;14238;49.496;8.154;2023-03-20T18:00:50;10.70;99.90
26595;DHT22;14238;49.496;8.154;2023-03-20T18:03:16;10.70;99.90
26595;DHT22;14238;49.496;8.154;2023-03-20T18:05:43;10.60;99.90